Time;durP1;ratioP1;P1;durP2;ratioP2;P2;SDS_P1;SDS_P2;PMS_P1;PMS_P2;Temp;Humidity;BMP_temperature;BMP_pressure;BME280_temperature;BME280_humidity;BME280_pressure;Samples;Min_cycle;Max_cycle;Signal;HPM_P1;HPM_P2
2023/05/18 00:01:59;;;;;;;;;3.00;3.00;;;;;;;;4967559;28;45481;-68
2023/05/18 00:04:24;;;;;;;;;5.00;4.00;;;;;;;;4965937;28;45406;-69
2023/05/18 00:06:55;;;;;;;;;5.00;3.00;;;;;;;;4967048;28;45568;-68
2023/05/18 00:09:25;;;;;;;;;4.50;2.50;;;;;;;;4967587;28;45631;-68
2023/05/18 00:11:50;;;;;;;;;3.00;3.00;;;;;;;;4966252;28;45468;-68
2023/05/18 00:14:16;;;;;;;;;2.00;2.00;;;;;;;;4967030;28;45811;-68
2023/05/18 00:16:41;;;;;;;;;1.00;1.00;;;;;;;;4967385;28;45326;-69
2023/05/18 00:19:06;;;;;;;;;1.25;1.25;;;;;;;;4965634;28;46153;-68
2023/05/18 00:21:32;;;;;;;;;4.00;3.00;;;;;;;;4967646;28;45462;-69
2023/05/18 00:23:57;;;;;;;;;5.25;4.25;;;;;;;;4968689;28;45322;-69
2023/05/18 00:26:22;;;;;;;;;1.50;1.50;;;;;;;;4966360;28;45515;-69
2023/05/18 00:28:48;;;;;;;;;2.00;2.00;;;;;;;;4967159;28;46194;-68
2023/05/18 00:31:13;;;;;;;;;1.00;1.00;;;;;;;;4967656;28;45296;-68
2023/05/18 00:33:39;;;;;;;;;1.75;1.25;;;;;;;;4967057;28;45412;-68
2023/05/18 00:36:04;;;;;;;;;1.75;1.75;;;;;;;;4965558;28;45253;-69
2023/05/18 00:38:29;;;;;;;;;2.00;2.00;;;;;;;;4967031;28;45377;-68
2023/05/18 00:40:55;;;;;;;;;2.50;2.50;;;;;;;;4962591;28;45540;-69
2023/05/18 00:43:20;;;;;;;;;1.25;1.25;;;;;;;;4964923;28;45404;-69
2023/05/18 00:45:45;;;;;;;;;1.25;1.25;;;;;;;;4960144;28;45228;-68
2023/05/18 00:48:10;;;;;;;;;4.00;3.00;;;;;;;;4957298;28;45413;-69
2023/05/18 00:50:37;;;;;;;;;4.00;2.00;;;;;;;;4973616;28;45440;-69
2023/05/18 00:53:02;;;;;;;;;4.00;3.00;;;;;;;;4977106;28;45427;-68
2023/05/18 00:55:27;;;;;;;;;3.00;3.00;;;;;;;;4976926;28;45351;-68
2023/05/18 00:57:55;;;;;;;;;4.00;4.00;;;;;;;;4976078;28;46958;-68
2023/05/18 01:00:21;;;;;;;;;2.00;2.00;;;;;;;;4976472;28;45457;-68
2023/05/18 01:02:49;;;;;;;;;2.50;2.50;;;;;;;;4976621;28;45353;-68
2023/05/18 01:05:16;;;;;;;;;2.00;1.50;;;;;;;;4976555;28;45325;-68
2023/05/18 01:07:42;;;;;;;;;2.00;2.00;;;;;;;;4976377;28;46189;-68
2023/05/18 01:10:08;;;;;;;;;2.50;2.00;;;;;;;;4976451;28;45441;-68
2023/05/18 01:12:42;;;;;;;;;2.50;2.50;;;;;;;;4976054;28;45435;-69
2023/05/18 01:15:11;;;;;;;;;3.00;2.00;;;;;;;;4976202;28;45515;-69
2023/05/18 01:17:48;;;;;;;;;1.50;1.50;;;;;;;;4975920;28;45938;-69
2023/05/18 01:20:17;;;;;;;;;5.25;3.00;;;;;;;;4976355;28;45283;-68
2023/05/18 01:22:45;;;;;;;;;1.00;1.00;;;;;;;;4984799;28;45383;-68
2023/05/18 01:25:23;;;;;;;;;2.25;2.25;;;;;;;;4996292;28;45458;-69
2023/05/18 01:27:49;;;;;;;;;2.25;2.25;;;;;;;;4995601;28;45699;-69
2023/05/18 01:30:15;;;;;;;;;2.25;1.25;;;;;;;;4995345;28;45331;-69
2023/05/18 01:32:41;;;;;;;;;2.25;2.25;;;;;;;;4978503;28;45387;-69
2023/05/18 01:35:07;;;;;;;;;1.75;1.75;;;;;;;;4976024;28;45542;-68
2023/05/18 01:37:33;;;;;;;;;3.25;2.00;;;;;;;;4975134;28;47187;-71
2023/05/18 01:39:58;;;;;;;;;1.75;1.75;;;;;;;;4958269;28;45421;-69
2023/05/18 01:42:25;;;;;;;;;2.50;2.50;;;;;;;;4976293;28;45439;-70
2023/05/18 01:44:52;;;;;;;;;4.25;3.75;;;;;;;;4974966;28;45480;-69
2023/05/18 01:47:18;;;;;;;;;3.25;2.25;;;;;;;;4975678;28;45398;-69
2023/05/18 01:49:43;;;;;;;;;3.75;2.25;;;;;;;;4965637;28;45812;-68
2023/05/18 01:52:10;;;;;;;;;3.50;3.25;;;;;;;;4956861;28;45401;-69
2023/05/18 01:54:37;;;;;;;;;3.00;3.00;;;;;;;;4956720;28;45402;-69
2023/05/18 01:57:05;;;;;;;;;3.00;3.00;;;;;;;;4956064;28;45994;-68
2023/05/18 01:59:30;;;;;;;;;3.50;2.00;;;;;;;;4956131;28;45377;-69
2023/05/18 02:01:59;;;;;;;;;5.75;2.75;;;;;;;;4956475;28;45495;-68
2023/05/18 02:04:24;;;;;;;;;4.75;3.00;;;;;;;;4956441;28;45515;-68
2023/05/18 02:06:53;;;;;;;;;3.25;2.00;;;;;;;;4956236;28;47047;-69
2023/05/18 02:09:18;;;;;;;;;2.50;2.50;;;;;;;;4956374;28;45486;-69
2023/05/18 02:11:45;;;;;;;;;2.00;2.00;;;;;;;;4956392;28;45437;-69
2023/05/18 02:14:10;;;;;;;;;5.50;4.00;;;;;;;;4956204;28;45433;-69
2023/05/18 02:16:35;;;;;;;;;4.25;2.00;;;;;;;;4955924;28;46407;-69
2023/05/18 02:19:02;;;;;;;;;2.25;2.25;;;;;;;;4969309;28;45308;-68
2023/05/18 02:21:27;;;;;;;;;2.00;2.00;;;;;;;;4976091;28;45411;-69
2023/05/18 02:23:52;;;;;;;;;4.75;2.00;;;;;;;;4975702;28;45455;-69
2023/05/18 02:26:17;;;;;;;;;2.75;2.75;;;;;;;;4975290;28;45414;-69
2023/05/18 02:28:42;;;;;;;;;4.50;4.50;;;;;;;;4968335;28;45475;-69
2023/05/18 02:31:09;;;;;;;;;4.75;4.00;;;;;;;;4956239;28;45377;-69
2023/05/18 02:33:38;;;;;;;;;4.00;4.00;;;;;;;;4955988;28;45466;-69
2023/05/18 02:36:05;;;;;;;;;4.00;3.00;;;;;;;;4955399;28;45456;-69
2023/05/18 02:38:30;;;;;;;;;3.25;3.00;;;;;;;;4954718;28;45920;-69
2023/05/18 02:40:55;;;;;;;;;5.00;4.00;;;;;;;;4955608;28;45555;-69
2023/05/18 02:43:20;;;;;;;;;3.50;2.75;;;;;;;;4972808;28;45352;-69
2023/05/18 02:45:46;;;;;;;;;2.00;2.00;;;;;;;;4975107;28;46388;-69
2023/05/18 02:48:11;;;;;;;;;5.00;2.00;;;;;;;;4974289;28;45533;-69
2023/05/18 02:50:36;;;;;;;;;3.00;3.00;;;;;;;;4957732;28;45425;-69
2023/05/18 02:53:01;;;;;;;;;4.75;3.00;;;;;;;;4955677;28;45557;-68
2023/05/18 02:55:27;;;;;;;;;2.00;2.00;;;;;;;;4955350;28;47351;-69
2023/05/18 02:57:55;;;;;;;;;5.75;3.00;;;;;;;;4957598;28;45826;-69
2023/05/18 03:00:22;;;;;;;;;3.00;3.00;;;;;;;;4959485;28;45520;-69
2023/05/18 03:02:49;;;;;;;;;5.00;3.25;;;;;;;;4959105;28;45448;-69
2023/05/18 03:05:15;;;;;;;;;5.25;4.75;;;;;;;;4958804;28;45558;-68
2023/05/18 03:07:41;;;;;;;;;4.25;2.75;;;;;;;;4958366;28;45459;-69
2023/05/18 03:10:06;;;;;;;;;3.00;3.00;;;;;;;;4958740;28;45338;-69
2023/05/18 03:12:31;;;;;;;;;4.25;3.75;;;;;;;;4957958;28;45419;-69
2023/05/18 03:14:57;;;;;;;;;3.75;3.75;;;;;;;;4958742;28;45979;-69
2023/05/18 03:17:22;;;;;;;;;2.50;2.50;;;;;;;;4958806;28;45485;-69
2023/05/18 03:19:47;;;;;;;;;4.25;4.25;;;;;;;;4959084;28;45349;-69
2023/05/18 03:22:12;;;;;;;;;3.25;3.00;;;;;;;;4967698;28;45384;-69
2023/05/18 03:24:39;;;;;;;;;4.75;3.75;;;;;;;;4984525;28;45314;-69
2023/05/18 03:27:04;;;;;;;;;4.00;4.00;;;;;;;;4959260;28;45376;-69
2023/05/18 03:29:30;;;;;;;;;3.25;3.25;;;;;;;;4958989;28;45323;-69
2023/05/18 03:31:55;;;;;;;;;4.00;4.00;;;;;;;;4963417;28;45379;-69
2023/05/18 03:34:20;;;;;;;;;5.00;2.75;;;;;;;;4959000;28;45456;-68
2023/05/18 03:36:46;;;;;;;;;3.50;3.50;;;;;;;;4941123;28;45307;-69
2023/05/18 03:39:11;;;;;;;;;3.25;3.25;;;;;;;;4959031;28;45395;-68
2023/05/18 03:41:37;;;;;;;;;4.25;2.75;;;;;;;;4958782;28;45423;-69
2023/05/18 03:44:02;;;;;;;;;4.00;3.00;;;;;;;;4959237;28;46071;-70
2023/05/18 03:46:27;;;;;;;;;4.25;2.00;;;;;;;;4958910;28;45349;-69
2023/05/18 03:48:55;;;;;;;;;5.50;4.00;;;;;;;;4962565;28;45552;-69
2023/05/18 03:51:20;;;;;;;;;3.25;3.25;;;;;;;;4978160;28;45491;-69
2023/05/18 03:53:46;;;;;;;;;5.00;4.00;;;;;;;;4977938;28;45445;-69
2023/05/18 03:56:12;;;;;;;;;2.25;2.25;;;;;;;;4978037;28;45384;-69
2023/05/18 03:58:37;;;;;;;;;2.75;2.75;;;;;;;;4958710;28;45448;-69
2023/05/18 04:01:03;;;;;;;;;4.50;3.25;;;;;;;;4961541;28;45342;-69
2023/05/18 04:03:29;;;;;;;;;6.25;5.00;;;;;;;;4977123;28;47004;-69
2023/05/18 04:05:54;;;;;;;;;6.75;5.25;;;;;;;;4976232;28;45451;-69
2023/05/18 04:08:24;;;;;;;;;5.50;4.50;;;;;;;;4976513;28;45444;-69
2023/05/18 04:10:50;;;;;;;;;5.75;4.75;;;;;;;;4977409;28;45455;-69
2023/05/18 04:13:15;;;;;;;;;4.75;4.00;;;;;;;;4977769;28;45382;-69
2023/05/18 04:15:40;;;;;;;;;4.50;3.25;;;;;;;;4977442;28;45407;-68
2023/05/18 04:18:06;;;;;;;;;6.00;4.25;;;;;;;;4977402;28;45522;-69
2023/05/18 04:20:32;;;;;;;;;4.25;4.00;;;;;;;;4977652;28;45354;-69
2023/05/18 04:22:57;;;;;;;;;3.00;3.00;;;;;;;;4977168;28;46213;-69
2023/05/18 04:25:28;;;;;;;;;5.00;5.00;;;;;;;;4977769;28;45365;-69
2023/05/18 04:27:54;;;;;;;;;3.75;3.00;;;;;;;;4977635;28;45433;-69
2023/05/18 04:30:22;;;;;;;;;5.50;5.50;;;;;;;;4977449;28;45451;-69
2023/05/18 04:32:47;;;;;;;;;6.00;5.75;;;;;;;;4977107;28;45429;-70
2023/05/18 04:35:14;;;;;;;;;7.00;4.00;;;;;;;;4976972;28;45341;-68
2023/05/18 04:37:39;;;;;;;;;5.00;4.00;;;;;;;;4976067;28;45411;-68
2023/05/18 04:40:15;;;;;;;;;4.75;3.75;;;;;;;;4973285;28;45576;-69
2023/05/18 04:42:44;;;;;;;;;6.25;4.25;;;;;;;;4957333;28;46925;-69
2023/05/18 04:45:21;;;;;;;;;5.25;4.00;;;;;;;;4957677;28;45484;-69
2023/05/18 04:47:51;;;;;;;;;4.75;4.75;;;;;;;;4956218;28;45425;-69
2023/05/18 04:50:17;;;;;;;;;8.75;6.50;;;;;;;;4971238;28;45413;-69
2023/05/18 04:52:47;;;;;;;;;9.00;6.25;;;;;;;;4975717;28;45644;-69
2023/05/18 04:55:13;;;;;;;;;11.00;8.25;;;;;;;;4976816;28;45359;-69
2023/05/18 04:57:38;;;;;;;;;5.25;5.25;;;;;;;;4976868;28;45530;-69
2023/05/18 05:00:04;;;;;;;;;5.00;5.00;;;;;;;;4976912;28;45384;-69
2023/05/18 05:02:30;;;;;;;;;6.50;6.00;;;;;;;;4976924;28;46202;-69
2023/05/18 05:04:55;;;;;;;;;6.25;5.50;;;;;;;;4976012;28;45413;-69
2023/05/18 05:07:20;;;;;;;;;6.25;4.25;;;;;;;;4960269;28;45342;-69
2023/05/18 05:09:45;;;;;;;;;10.50;8.00;;;;;;;;4957175;28;45523;-69
2023/05/18 05:12:10;;;;;;;;;7.25;5.75;;;;;;;;4956081;28;46057;-69
2023/05/18 05:14:36;;;;;;;;;5.00;4.00;;;;;;;;4956774;28;45344;-69
2023/05/18 05:17:01;;;;;;;;;8.00;6.50;;;;;;;;4957015;28;45333;-69
2023/05/18 05:19:26;;;;;;;;;6.00;5.00;;;;;;;;4956489;28;45409;-69
2023/05/18 05:21:51;;;;;;;;;6.00;5.75;;;;;;;;4958654;28;45260;-69
2023/05/18 05:24:16;;;;;;;;;6.00;5.75;;;;;;;;4972857;28;45606;-69
2023/05/18 05:26:42;;;;;;;;;8.25;8.00;;;;;;;;4957290;28;45420;-68
2023/05/18 05:29:07;;;;;;;;;4.50;4.50;;;;;;;;4957230;28;45392;-69
2023/05/18 05:31:33;;;;;;;;;5.00;5.00;;;;;;;;4956858;28;46294;-69
2023/05/18 05:33:58;;;;;;;;;4.25;4.25;;;;;;;;4956808;28;45318;-69
2023/05/18 05:36:23;;;;;;;;;6.75;5.75;;;;;;;;4956845;28;45376;-69
2023/05/18 05:38:49;;;;;;;;;7.25;5.25;;;;;;;;4958357;28;45445;-69
2023/05/18 05:41:14;;;;;;;;;5.50;5.50;;;;;;;;4976261;28;46351;-69
2023/05/18 05:43:39;;;;;;;;;2.00;2.00;;;;;;;;4976289;28;45459;-69
2023/05/18 05:46:05;;;;;;;;;7.75;5.00;;;;;;;;4976653;28;45290;-68
2023/05/18 05:48:30;;;;;;;;;6.25;5.50;;;;;;;;4975739;28;45468;-69
2023/05/18 05:50:55;;;;;;;;;5.25;5.25;;;;;;;;4956852;28;45484;-69
2023/05/18 05:53:22;;;;;;;;;5.00;4.75;;;;;;;;4956589;28;45365;-69
2023/05/18 05:55:47;;;;;;;;;5.25;4.50;;;;;;;;4955456;28;45463;-68
2023/05/18 05:58:12;;;;;;;;;5.50;5.25;;;;;;;;4956460;28;45547;-69
2023/05/18 06:00:37;;;;;;;;;11.00;6.75;;;;;;;;4956488;28;45456;-69
2023/05/18 06:03:03;;;;;;;;;6.00;5.00;;;;;;;;4956181;28;45468;-69
2023/05/18 06:05:28;;;;;;;;;6.25;6.25;;;;;;;;4956291;28;45457;-69
2023/05/18 06:07:54;;;;;;;;;3.75;3.50;;;;;;;;4956497;28;45371;-69
2023/05/18 06:10:19;;;;;;;;;5.75;5.75;;;;;;;;4956111;28;45942;-69
2023/05/18 06:12:44;;;;;;;;;6.00;6.00;;;;;;;;4956610;28;45376;-70
2023/05/18 06:15:10;;;;;;;;;8.50;6.00;;;;;;;;4956443;28;45461;-70
2023/05/18 06:17:35;;;;;;;;;6.50;6.50;;;;;;;;4956063;28;45514;-69
2023/05/18 06:20:00;;;;;;;;;10.50;7.00;;;;;;;;4956159;28;45983;-69
2023/05/18 06:22:25;;;;;;;;;7.50;4.25;;;;;;;;4968359;28;45326;-70
2023/05/18 06:24:50;;;;;;;;;5.75;5.25;;;;;;;;4994052;28;45299;-69
2023/05/18 06:27:16;;;;;;;;;6.00;4.75;;;;;;;;4995482;28;45281;-68
2023/05/18 06:29:42;;;;;;;;;6.25;5.25;;;;;;;;4964315;28;45638;-72
2023/05/18 06:32:07;;;;;;;;;4.25;3.00;;;;;;;;4954373;28;45413;-74
2023/05/18 06:34:32;;;;;;;;;6.75;6.75;;;;;;;;4962808;28;45857;-72
2023/05/18 06:36:57;;;;;;;;;6.25;5.00;;;;;;;;4966907;28;45373;-72
2023/05/18 06:39:23;;;;;;;;;6.50;5.50;;;;;;;;4965394;28;46265;-71
2023/05/18 06:41:50;;;;;;;;;6.75;4.50;;;;;;;;4966201;28;45615;-72
2023/05/18 06:44:15;;;;;;;;;9.50;6.25;;;;;;;;4964072;28;45605;-73
2023/05/18 06:46:40;;;;;;;;;4.75;4.75;;;;;;;;4955879;28;45409;-73
2023/05/18 06:49:06;;;;;;;;;6.00;4.00;;;;;;;;4959842;28;48664;-73
2023/05/18 06:51:31;;;;;;;;;5.00;5.00;;;;;;;;4975345;28;45361;-70
2023/05/18 06:53:57;;;;;;;;;6.00;4.75;;;;;;;;4975343;28;45876;-70
2023/05/18 06:56:22;;;;;;;;;8.00;5.25;;;;;;;;4975330;28;45428;-71
2023/05/18 06:58:48;;;;;;;;;9.25;6.50;;;;;;;;4975002;28;46459;-73
2023/05/18 07:01:13;;;;;;;;;6.00;6.00;;;;;;;;4974939;28;45318;-71
2023/05/18 07:03:38;;;;;;;;;5.00;5.00;;;;;;;;4975136;28;45504;-73
2023/05/18 07:06:04;;;;;;;;;5.50;5.50;;;;;;;;4975170;28;45387;-73
2023/05/18 07:08:30;;;;;;;;;8.25;6.50;;;;;;;;4975698;28;45321;-71
2023/05/18 07:10:56;;;;;;;;;7.00;7.00;;;;;;;;4975106;28;45434;-70
2023/05/18 07:13:22;;;;;;;;;7.00;4.25;;;;;;;;4975532;28;45370;-71
2023/05/18 07:15:47;;;;;;;;;6.00;6.00;;;;;;;;4974761;28;45483;-69
2023/05/18 07:18:12;;;;;;;;;12.00;7.00;;;;;;;;4974727;28;47341;-70
2023/05/18 07:20:38;;;;;;;;;5.25;2.00;;;;;;;;4957527;28;46263;-69
2023/05/18 07:23:03;;;;;;;;;7.50;6.50;;;;;;;;4974751;28;45349;-69
2023/05/18 07:25:28;;;;;;;;;4.50;3.50;;;;;;;;4974655;28;45516;-69
2023/05/18 07:27:54;;;;;;;;;6.75;5.00;;;;;;;;4962552;28;45434;-73
2023/05/18 07:30:20;;;;;;;;;5.75;5.75;;;;;;;;4969761;28;45500;-72
2023/05/18 07:32:45;;;;;;;;;5.75;5.75;;;;;;;;4974706;28;45324;-73
2023/05/18 07:35:11;;;;;;;;;5.00;5.00;;;;;;;;4974573;28;45416;-72
2023/05/18 07:37:36;;;;;;;;;7.00;6.75;;;;;;;;4974501;28;45257;-73
2023/05/18 07:40:03;;;;;;;;;7.00;6.00;;;;;;;;4972762;28;45516;-73
2023/05/18 07:42:28;;;;;;;;;6.50;5.50;;;;;;;;4954802;28;45604;-72
2023/05/18 07:44:53;;;;;;;;;7.50;6.25;;;;;;;;4958547;28;45305;-68
2023/05/18 07:47:20;;;;;;;;;7.75;6.25;;;;;;;;4958370;28;46581;-69
2023/05/18 07:49:45;;;;;;;;;5.00;5.00;;;;;;;;4969114;28;45363;-66
2023/05/18 07:52:10;;;;;;;;;8.00;6.00;;;;;;;;4977780;28;45549;-66
2023/05/18 07:54:36;;;;;;;;;5.25;5.25;;;;;;;;4978315;28;45484;-65
2023/05/18 07:57:01;;;;;;;;;11.25;5.75;;;;;;;;4977441;28;45999;-65
2023/05/18 07:59:26;;;;;;;;;6.25;4.50;;;;;;;;4977465;28;45362;-68
2023/05/18 08:01:51;;;;;;;;;5.00;4.00;;;;;;;;4978160;28;45266;-67
2023/05/18 08:04:16;;;;;;;;;4.50;4.50;;;;;;;;4973345;28;45239;-67
2023/05/18 08:06:42;;;;;;;;;4.75;3.25;;;;;;;;4964518;28;45311;-67
2023/05/18 08:09:07;;;;;;;;;4.25;3.00;;;;;;;;4977692;28;45455;-67
2023/05/18 08:11:32;;;;;;;;;5.00;4.75;;;;;;;;4977928;28;45423;-68
2023/05/18 08:13:57;;;;;;;;;5.00;5.00;;;;;;;;4975398;28;45512;-67
2023/05/18 08:16:23;;;;;;;;;7.50;6.75;;;;;;;;4967788;28;46232;-67
2023/05/18 08:18:48;;;;;;;;;5.25;4.75;;;;;;;;4956371;28;45926;-66
2023/05/18 08:21:13;;;;;;;;;5.50;4.75;;;;;;;;4956882;28;45457;-67
2023/05/18 08:23:39;;;;;;;;;5.25;4.25;;;;;;;;4973313;28;45464;-67
2023/05/18 08:26:04;;;;;;;;;4.25;3.25;;;;;;;;4970611;28;46496;-68
2023/05/18 08:28:30;;;;;;;;;4.25;4.25;;;;;;;;4955985;28;45541;-67
2023/05/18 08:30:55;;;;;;;;;4.25;3.25;;;;;;;;4956492;28;45505;-67
2023/05/18 08:33:22;;;;;;;;;6.25;5.00;;;;;;;;4963849;28;45417;-67
2023/05/18 08:35:47;;;;;;;;;5.00;5.00;;;;;;;;4976940;28;45740;-68
2023/05/18 08:38:12;;;;;;;;;4.75;3.00;;;;;;;;4971927;28;45640;-68
2023/05/18 08:40:56;;;;;;;;;4.50;4.50;;;;;;;;4966484;28;45322;-67
2023/05/18 08:43:23;;;;;;;;;7.00;6.00;;;;;;;;4957476;28;45429;-66
2023/05/18 08:45:54;;;;;;;;;5.00;4.00;;;;;;;;4957727;28;46159;-67
2023/05/18 08:48:21;;;;;;;;;5.25;4.50;;;;;;;;4957394;28;45499;-67
2023/05/18 08:50:48;;;;;;;;;3.75;3.75;;;;;;;;4976489;28;45321;-66
2023/05/18 08:53:13;;;;;;;;;4.50;3.50;;;;;;;;4977478;28;45238;-67
2023/05/18 08:55:40;;;;;;;;;5.50;4.75;;;;;;;;4975929;28;46366;-68
2023/05/18 08:58:07;;;;;;;;;5.75;5.00;;;;;;;;4976689;28;45307;-68
2023/05/18 09:00:33;;;;;;;;;6.25;3.50;;;;;;;;4977070;28;45432;-68
2023/05/18 09:02:58;;;;;;;;;6.25;6.00;;;;;;;;4976927;28;45400;-68
2023/05/18 09:05:24;;;;;;;;;8.25;4.75;;;;;;;;4976933;28;45466;-68
2023/05/18 09:07:49;;;;;;;;;4.25;4.25;;;;;;;;4976877;28;45448;-69
2023/05/18 09:10:14;;;;;;;;;3.00;2.00;;;;;;;;4976959;28;45475;-69
2023/05/18 09:12:41;;;;;;;;;4.75;4.75;;;;;;;;4976702;28;45374;-68
2023/05/18 09:15:07;;;;;;;;;7.50;7.50;;;;;;;;4976512;28;47248;-68
2023/05/18 09:17:32;;;;;;;;;6.00;6.00;;;;;;;;4976648;28;45414;-68
2023/05/18 09:19:58;;;;;;;;;4.75;4.50;;;;;;;;4976664;28;45309;-68
2023/05/18 09:22:23;;;;;;;;;7.25;7.00;;;;;;;;4976783;28;45481;-69
2023/05/18 09:24:48;;;;;;;;;4.00;4.00;;;;;;;;4968178;28;46332;-69
2023/05/18 09:27:14;;;;;;;;;4.25;4.25;;;;;;;;4957272;28;45394;-69
2023/05/18 09:29:52;;;;;;;;;6.00;4.25;;;;;;;;4957319;28;45536;-69
2023/05/18 09:32:18;;;;;;;;;5.75;5.75;;;;;;;;4957078;28;45471;-68
2023/05/18 09:34:44;;;;;;;;;4.00;4.00;;;;;;;;4956765;28;46957;-68
2023/05/18 09:37:10;;;;;;;;;5.00;5.00;;;;;;;;4956950;28;45425;-68
2023/05/18 09:39:35;;;;;;;;;2.25;2.25;;;;;;;;4956825;28;45468;-68
2023/05/18 09:42:04;;;;;;;;;5.75;5.75;;;;;;;;4955494;28;45468;-69
2023/05/18 09:44:35;;;;;;;;;6.00;4.75;;;;;;;;4955490;28;45661;-68
2023/05/18 09:47:01;;;;;;;;;7.75;5.25;;;;;;;;4955696;28;45429;-69
2023/05/18 09:49:28;;;;;;;;;10.25;4.75;;;;;;;;4965088;28;45516;-69
2023/05/18 09:51:53;;;;;;;;;3.00;2.00;;;;;;;;4976198;28;45291;-69
2023/05/18 09:54:18;;;;;;;;;7.00;6.00;;;;;;;;4975707;28;46294;-68
2023/05/18 09:56:44;;;;;;;;;5.50;4.25;;;;;;;;4974896;28;45278;-68
2023/05/18 09:59:09;;;;;;;;;5.50;4.50;;;;;;;;4976357;28;45320;-67
2023/05/18 10:01:34;;;;;;;;;6.75;6.25;;;;;;;;4975419;28;45470;-68
2023/05/18 10:04:03;;;;;;;;;9.50;5.75;;;;;;;;4976040;28;46198;-67
2023/05/18 10:06:28;;;;;;;;;6.25;6.00;;;;;;;;4975630;28;45484;-67
2023/05/18 10:08:55;;;;;;;;;3.25;3.25;;;;;;;;4976186;28;45508;-67
2023/05/18 10:11:22;;;;;;;;;8.00;7.00;;;;;;;;4976084;28;45486;-66
2023/05/18 10:13:52;;;;;;;;;7.50;4.75;;;;;;;;4975930;28;45659;-67
2023/05/18 10:16:17;;;;;;;;;10.50;10.25;;;;;;;;4975450;28;45446;-66
2023/05/18 10:18:42;;;;;;;;;6.00;6.00;;;;;;;;4975887;28;45455;-66
2023/05/18 10:21:08;;;;;;;;;4.00;4.00;;;;;;;;4976176;28;45333;-65
2023/05/18 10:23:34;;;;;;;;;7.75;6.00;;;;;;;;4975065;28;45352;-66
2023/05/18 10:25:59;;;;;;;;;5.75;5.75;;;;;;;;4974625;28;46119;-66
2023/05/18 10:28:27;;;;;;;;;4.50;4.00;;;;;;;;4968996;28;45500;-67
2023/05/18 10:30:54;;;;;;;;;6.00;5.00;;;;;;;;4956417;28;45488;-66
2023/05/18 10:33:21;;;;;;;;;7.25;6.75;;;;;;;;4956348;28;45397;-68
2023/05/18 10:35:48;;;;;;;;;8.00;6.75;;;;;;;;4956061;28;45365;-67
2023/05/18 10:38:15;;;;;;;;;9.25;7.00;;;;;;;;4954367;28;45436;-68
2023/05/18 10:40:42;;;;;;;;;8.00;6.00;;;;;;;;4955526;28;45439;-67
2023/05/18 10:43:08;;;;;;;;;7.50;4.00;;;;;;;;4955658;28;47467;-67
2023/05/18 10:45:34;;;;;;;;;3.25;3.25;;;;;;;;4956286;28;45441;-67
2023/05/18 10:48:00;;;;;;;;;6.00;6.00;;;;;;;;4960163;28;45482;-68
2023/05/18 10:50:25;;;;;;;;;5.00;5.00;;;;;;;;4965306;28;45391;-67
2023/05/18 10:52:52;;;;;;;;;5.50;5.00;;;;;;;;4960523;28;45829;-67
2023/05/18 10:55:17;;;;;;;;;5.50;4.50;;;;;;;;4956024;28;45523;-67
2023/05/18 10:57:48;;;;;;;;;6.50;5.50;;;;;;;;4954124;28;45707;-67
2023/05/18 11:00:14;;;;;;;;;5.25;5.25;;;;;;;;4955750;28;45483;-68
2023/05/18 11:02:41;;;;;;;;;4.25;4.25;;;;;;;;4955523;28;45355;-67
2023/05/18 11:05:07;;;;;;;;;5.00;5.00;;;;;;;;4955621;28;45330;-67
2023/05/18 11:07:33;;;;;;;;;5.00;4.00;;;;;;;;4954765;28;45423;-67
2023/05/18 11:09:59;;;;;;;;;4.00;4.00;;;;;;;;4955846;28;45559;-67
2023/05/18 11:12:25;;;;;;;;;5.25;4.00;;;;;;;;4955757;28;45713;-67
2023/05/18 11:14:51;;;;;;;;;5.00;3.75;;;;;;;;4954122;28;45568;-67
2023/05/18 11:17:18;;;;;;;;;1.50;1.50;;;;;;;;4955037;28;45416;-67
2023/05/18 11:22:50;;;;;;;;;4.75;4.75;;;;;;;;4971465;28;45539;-68
2023/05/18 11:25:24;;;;;;;;;3.00;3.00;;;;;;;;4998421;28;45435;-67
2023/05/18 11:27:50;;;;;;;;;0.75;0.00;;;;;;;;4997083;28;45260;-68
2023/05/18 11:30:28;;;;;;;;;4.75;4.75;;;;;;;;4959032;28;45394;-67
2023/05/18 11:33:12;;;;;;;;;5.50;5.50;;;;;;;;4957647;28;46344;-68
2023/05/18 11:35:53;;;;;;;;;4.50;3.75;;;;;;;;4958781;28;45484;-68
2023/05/18 11:38:19;;;;;;;;;5.50;4.25;;;;;;;;4958828;28;45338;-68
2023/05/18 11:40:48;;;;;;;;;6.50;4.75;;;;;;;;4958985;28;45393;-68
2023/05/18 11:43:18;;;;;;;;;4.50;3.25;;;;;;;;4958736;28;45595;-68
2023/05/18 11:45:57;;;;;;;;;4.00;4.00;;;;;;;;4958440;28;45354;-68
2023/05/18 11:48:23;;;;;;;;;4.00;4.00;;;;;;;;4958777;28;45314;-70
2023/05/18 11:50:51;;;;;;;;;3.50;3.50;;;;;;;;4977140;28;45471;-68
2023/05/18 11:53:17;;;;;;;;;4.00;4.00;;;;;;;;4977921;28;45802;-67
2023/05/18 11:55:42;;;;;;;;;4.00;4.00;;;;;;;;4977940;28;45419;-67
2023/05/18 11:58:08;;;;;;;;;6.00;4.75;;;;;;;;4978000;28;45330;-67
2023/05/18 12:00:34;;;;;;;;;5.50;5.50;;;;;;;;4978458;28;45290;-68
2023/05/18 12:03:00;;;;;;;;;4.50;4.25;;;;;;;;4977979;28;47073;-68
2023/05/18 12:05:29;;;;;;;;;5.00;5.00;;;;;;;;4977505;28;45335;-66
2023/05/18 12:07:54;;;;;;;;;6.50;5.00;;;;;;;;4977880;28;45373;-69
2023/05/18 12:10:20;;;;;;;;;4.50;4.00;;;;;;;;4977926;28;45586;-68
2023/05/18 12:12:50;;;;;;;;;8.25;4.00;;;;;;;;4977701;28;46061;-68
2023/05/18 12:15:19;;;;;;;;;10.00;5.00;;;;;;;;4977704;28;45651;-67
2023/05/18 12:17:46;;;;;;;;;4.00;3.50;;;;;;;;4977734;28;45494;-67
2023/05/18 12:20:14;;;;;;;;;5.25;5.25;;;;;;;;4977566;28;45424;-67
2023/05/18 12:22:40;;;;;;;;;3.25;3.25;;;;;;;;4985072;28;45380;-67
2023/05/18 12:25:06;;;;;;;;;8.00;4.00;;;;;;;;4995074;28;45561;-67
2023/05/18 12:27:37;;;;;;;;;6.00;4.00;;;;;;;;4977578;28;45418;-68
2023/05/18 12:30:02;;;;;;;;;4.50;4.50;;;;;;;;4976393;28;45442;-68
2023/05/18 12:32:28;;;;;;;;;5.50;4.50;;;;;;;;4977181;28;45343;-68
2023/05/18 12:34:54;;;;;;;;;3.50;3.00;;;;;;;;4977070;28;45306;-68
2023/05/18 12:37:22;;;;;;;;;6.75;5.75;;;;;;;;4976460;28;45372;-67
2023/05/18 12:39:50;;;;;;;;;5.25;5.00;;;;;;;;4977331;28;45466;-67
2023/05/18 12:42:16;;;;;;;;;6.75;5.50;;;;;;;;4977330;28;45345;-68
2023/05/18 12:44:45;;;;;;;;;7.50;4.25;;;;;;;;4977231;28;45357;-67
2023/05/18 12:47:10;;;;;;;;;7.00;5.75;;;;;;;;4977193;28;45304;-67
2023/05/18 12:49:37;;;;;;;;;5.00;5.00;;;;;;;;4967171;28;45862;-67
2023/05/18 12:52:12;;;;;;;;;3.00;3.00;;;;;;;;4956308;28;48686;-67
2023/05/18 12:54:48;;;;;;;;;3.00;3.00;;;;;;;;4957706;28;45435;-68
2023/05/18 12:57:15;;;;;;;;;3.25;3.25;;;;;;;;4957526;28;45477;-68
2023/05/18 12:59:46;;;;;;;;;3.00;2.00;;;;;;;;4956501;28;45602;-68
2023/05/18 13:02:23;;;;;;;;;3.00;2.50;;;;;;;;4957313;28;46132;-67
2023/05/18 13:04:58;;;;;;;;;2.00;2.00;;;;;;;;4957568;28;45377;-67
2023/05/18 13:07:25;;;;;;;;;3.50;2.50;;;;;;;;4957507;28;45417;-67
2023/05/18 13:09:50;;;;;;;;;4.25;4.25;;;;;;;;4957584;28;45408;-67
2023/05/18 13:12:15;;;;;;;;;3.00;3.00;;;;;;;;4957128;28;45376;-69
2023/05/18 13:14:41;;;;;;;;;2.00;2.00;;;;;;;;4957285;28;45560;-66
2023/05/18 13:17:06;;;;;;;;;2.75;2.25;;;;;;;;4957401;28;45234;-67
2023/05/18 13:19:33;;;;;;;;;3.00;3.00;;;;;;;;4957489;28;45411;-67
2023/05/18 13:21:58;;;;;;;;;1.75;1.00;;;;;;;;4962127;28;46576;-67
2023/05/18 13:24:24;;;;;;;;;3.75;2.00;;;;;;;;4996628;28;45303;-67
2023/05/18 13:26:49;;;;;;;;;3.00;3.00;;;;;;;;4995048;28;45346;-67
2023/05/18 13:29:14;;;;;;;;;4.00;4.00;;;;;;;;4995380;28;45364;-67
2023/05/18 13:31:39;;;;;;;;;4.50;3.50;;;;;;;;4996206;28;45439;-67
2023/05/18 13:34:05;;;;;;;;;3.00;3.00;;;;;;;;4958686;28;45414;-67
2023/05/18 13:36:32;;;;;;;;;5.50;4.25;;;;;;;;4956992;28;45313;-68
2023/05/18 13:38:58;;;;;;;;;3.25;3.25;;;;;;;;4957196;28;45451;-68
2023/05/18 13:41:23;;;;;;;;;3.25;2.00;;;;;;;;4956499;28;45475;-67
2023/05/18 13:43:48;;;;;;;;;6.25;3.75;;;;;;;;4956903;28;45456;-66
2023/05/18 13:46:14;;;;;;;;;4.25;4.25;;;;;;;;4957173;28;45533;-65
2023/05/18 13:48:39;;;;;;;;;5.00;3.25;;;;;;;;4967889;28;45342;-65
2023/05/18 13:51:04;;;;;;;;;4.75;4.25;;;;;;;;4956645;28;47122;-67
2023/05/18 13:53:30;;;;;;;;;5.75;3.25;;;;;;;;4956731;28;45432;-67
2023/05/18 13:55:55;;;;;;;;;2.25;2.00;;;;;;;;4956765;28;45381;-66
2023/05/18 13:58:20;;;;;;;;;4.00;4.00;;;;;;;;4956822;28;45515;-66
2023/05/18 14:00:45;;;;;;;;;4.75;4.75;;;;;;;;4955243;28;48139;-66
2023/05/18 14:03:11;;;;;;;;;6.00;4.25;;;;;;;;4956854;28;45389;-66
2023/05/18 14:05:36;;;;;;;;;3.00;3.00;;;;;;;;4957010;28;45409;-68
2023/05/18 14:08:02;;;;;;;;;4.00;4.00;;;;;;;;4955338;28;45487;-66
2023/05/18 14:10:27;;;;;;;;;5.00;3.75;;;;;;;;4956622;28;46926;-67
2023/05/18 14:12:52;;;;;;;;;5.00;4.00;;;;;;;;4956765;28;45394;-67
2023/05/18 14:15:17;;;;;;;;;4.25;2.75;;;;;;;;4956346;28;45442;-67
2023/05/18 14:17:42;;;;;;;;;4.00;3.25;;;;;;;;4956350;28;45574;-67
2023/05/18 14:20:08;;;;;;;;;3.00;3.00;;;;;;;;4956426;28;47440;-66
2023/05/18 14:22:34;;;;;;;;;4.50;4.50;;;;;;;;4970920;28;45724;-66
2023/05/18 14:24:59;;;;;;;;;1.00;1.00;;;;;;;;4975519;28;45350;-67
2023/05/18 14:27:25;;;;;;;;;5.00;3.00;;;;;;;;4956173;28;45405;-70
2023/05/18 14:29:50;;;;;;;;;4.25;3.00;;;;;;;;4955846;28;46129;-70
2023/05/18 14:32:15;;;;;;;;;4.75;3.25;;;;;;;;4955045;28;45771;-68
2023/05/18 14:34:41;;;;;;;;;4.25;3.50;;;;;;;;4956482;28;45365;-67
2023/05/18 14:37:06;;;;;;;;;2.50;2.00;;;;;;;;4955945;28;45508;-68
2023/05/18 14:39:31;;;;;;;;;5.50;3.75;;;;;;;;4956183;28;46296;-69
2023/05/18 14:41:57;;;;;;;;;4.25;3.00;;;;;;;;4955987;28;45316;-72